ADDS METAR Data INFO
IDs: Format: Raw Decoded Include TAF

Data at: 1942 UTC 17 Feb 2018

KS25 171935Z AUTO 31010G15KT 10SM CLR M08/M14 A2998 RMK AO2
KS25 171915Z AUTO 30011KT 10SM CLR M08/M14 A2999 RMK AO2
KS25 171855Z AUTO 30009KT 10SM CLR M08/M13 A2999 RMK AO2
KS25 171835Z AUTO 27010G17KT 10SM CLR M09/M13 A3000 RMK AO2
KS25 171815Z AUTO 28013G18KT 10SM CLR M09/M14 A3000 RMK AO2
KS25 171755Z AUTO 30015KT 10SM CLR M09/M14 A2999 RMK AO2
KS25 171735Z AUTO 27010KT 10SM CLR M10/M14 A3001 RMK AO2
KS25 171715Z AUTO 30011KT 10SM CLR M10/M15 A3000 RMK AO2
KS25 171655Z AUTO 29013KT 10SM CLR M10/M14 A2999 RMK AO2
KS25 171635Z AUTO 27010KT 10SM CLR M11/M15 A2999 RMK AO2
KS25 171615Z AUTO 28010G16KT 10SM CLR M11/M15 A2998 RMK AO2
KS25 171555Z AUTO 26009KT 10SM CLR M11/M14 A2998 RMK AO2
KS25 171535Z AUTO 29009KT 10SM CLR M11/M14 A2997 RMK AO2
KS25 171515Z AUTO 28010G15KT 10SM CLR M12/M14 A2997 RMK AO2
KS25 171455Z AUTO 27012KT 10SM CLR M12/M14 A2996 RMK AO2
KS25 171435Z AUTO 27008KT 10SM CLR M12/M14 A2996 RMK AO2
KS25 171415Z AUTO 30007KT 10SM FEW015 SCT037 M12/M14 A2995 RMK AO2
KS25 171355Z AUTO 29008G14KT 10SM OVC016 M11/M13 A2994 RMK AO2
KS25 171335Z AUTO 28013KT 10SM BKN018 M10/M12 A2993 RMK AO2
KS25 171315Z AUTO 28013KT 10SM OVC019 M10/M12 A2993 RMK AO2
KS25 171255Z AUTO 29010KT 10SM OVC020 M10/M12 A2992 RMK AO2
KS25 171235Z AUTO 28007KT 10SM OVC020 M10/M12 A2992 RMK AO2
KS25 171215Z AUTO 26006KT 10SM OVC019 M11/M13 A2992 RMK AO2
KS25 171155Z AUTO 29006KT 10SM BKN019 M11/M13 A2991 RMK AO2
KS25 171135Z AUTO 28008KT 10SM FEW020 M12/M13 A2989 RMK AO2
KS25 171115Z AUTO 27006KT 10SM CLR M11/M13 A2989 RMK AO2
KS25 171055Z AUTO 26008KT 10SM SCT037 M11/M13 A2988 RMK AO2
KS25 171035Z AUTO 25006KT 10SM OVC038 M09/M12 A2987 RMK AO2
KS25 171015Z AUTO 30008KT 10SM OVC037 M09/M11 A2987 RMK AO2
KS25 170955Z AUTO 29005KT 10SM OVC031 M09/M11 A2986 RMK AO2
KS25 170935Z AUTO 28006KT 10SM OVC028 M09/M11 A2985 RMK AO2
KS25 170915Z AUTO 29009KT 10SM OVC027 M08/M11 A2984 RMK AO2
KS25 170855Z AUTO 29008KT 10SM FEW026 FEW031 M09/M11 A2984 RMK AO2
KS25 170835Z AUTO 31007KT 10SM CLR M08/M10 A2983 RMK AO2
KS25 170815Z AUTO 29005KT 10SM CLR M08/M10 A2981 RMK AO2
KS25 170755Z AUTO 00000KT 10SM CLR M09/M10 A2981 RMK AO2
KS25 170735Z AUTO 21003KT 10SM CLR M09/M10 A2979 RMK AO2
KS25 170715Z AUTO 25003KT 10SM CLR M09/M10 A2979 RMK AO2
KS25 170655Z AUTO 21004KT 10SM CLR M08/M10 A2979 RMK AO2
KS25 170635Z AUTO 23005KT 10SM CLR M09/M10 A2979 RMK AO2
KS25 170615Z AUTO 00000KT 10SM FEW021 FEW095 M10/M10 A2979 RMK AO2
KS25 170555Z AUTO 00000KT 10SM BKN022 BKN095 M11/M12 A2978 RMK AO2
KS25 170535Z AUTO 23004KT 10SM BKN023 M12/M13 A2979 RMK AO2
KS25 170515Z AUTO 23006KT 10SM FEW090 M12/M13 A2978 RMK AO2
KS25 170455Z AUTO 24006KT 10SM BKN090 M11/M12 A2978 RMK AO2
KS25 170435Z AUTO 23006KT 10SM BKN095 M10/M11 A2978 RMK AO2
KS25 170415Z AUTO 23006KT 10SM FEW095 M11/M12 A2978 RMK AO2
KS25 170355Z AUTO 24004KT 10SM CLR M11/M12 A2978 RMK AO2
KS25 170335Z AUTO 25005KT 10SM CLR M09/M10 A2978 RMK AO2
KS25 170315Z AUTO 24003KT 10SM CLR M08/M09 A2977 RMK AO2
KS25 170255Z AUTO 00000KT 10SM CLR M08/M10 A2977 RMK AO2
KS25 170235Z AUTO 00000KT 10SM CLR M07/M09 A2977 RMK AO2
KS25 170215Z AUTO 27003KT 10SM CLR M06/M09 A2977 RMK AO2
KS25 170155Z AUTO 24008KT 10SM CLR M06/M08 A2977 RMK AO2
KS25 170135Z AUTO 23009KT 10SM CLR M05/M08 A2976 RMK AO2
KS25 170115Z AUTO 23012KT 10SM CLR M05/M08 A2976 RMK AO2
KS25 170055Z AUTO 22009KT 10SM CLR M04/M08 A2976 RMK AO2
KS25 170035Z AUTO 24008KT 10SM CLR M04/M08 A2976 RMK AO2
KS25 170015Z AUTO 25007KT 10SM CLR M04/M08 A2976 RMK AO2
KS25 162355Z AUTO 25007KT 10SM CLR M04/M08 A2977 RMK AO2
KS25 162335Z AUTO 24010KT 10SM CLR M04/M08 A2977 RMK AO2
KS25 162315Z AUTO 24010KT 10SM CLR M03/M08 A2977 RMK AO2
KS25 162255Z AUTO 26010KT 10SM CLR M03/M08 A2977 RMK AO2
KS25 162235Z AUTO 26009G14KT 10SM CLR M03/M08 A2977 RMK AO2
KS25 162215Z AUTO 25012KT 10SM CLR M03/M09 A2977 RMK AO2
KS25 162155Z AUTO 27011KT 10SM CLR M03/M09 A2977 RMK AO2
KS25 162135Z AUTO 25013KT 10SM CLR M02/M09 A2978 RMK AO2
KS25 162115Z AUTO 25013KT 10SM CLR M02/M09 A2978 RMK AO2
KS25 162055Z AUTO 26011G19KT 10SM CLR M02/M09 A2978 RMK AO2
KS25 162035Z AUTO 25014G20KT 10SM FEW075 M03/M10 A2978 RMK AO2
KS25 162015Z AUTO 25014G21KT 10SM FEW046 FEW060 SCT080 M03/M10 A2979 RMK AO2
KS25 161955Z AUTO 24018KT 10SM FEW048 SCT060 BKN070 M03/M10 A2980 RMK AO2
KS25 161935Z AUTO 24015G27KT 10SM FEW048 SCT055 BKN065 M03/M11 A2982 RMK AO2
KS25 161915Z AUTO 24018KT 10SM FEW040 BKN055 BKN090 M04/M11 A2983 RMK AO2
KS25 161855Z AUTO 23017G24KT 10SM FEW065 FEW090 SCT110 M05/M11 A2983 RMK AO2
KS25 161835Z AUTO 24014KT 10SM CLR M05/M12 A2985 RMK AO2
KS25 161815Z AUTO 23016G22KT 10SM CLR M06/M12 A2987 RMK AO2
KS25 161755Z AUTO 24017KT 10SM FEW070 M06/M12 A2987 RMK AO2
KS25 161735Z AUTO 23016G21KT 10SM CLR M07/M13 A2987 RMK AO2
KS25 161715Z AUTO 23014G21KT 10SM CLR M08/M14 A2988 RMK AO2
KS25 161655Z AUTO 23015G22KT 10SM CLR M08/M14 A2989 RMK AO2
KS25 161635Z AUTO 24015G22KT 10SM CLR M09/M14 A2990 RMK AO2
KS25 161615Z AUTO 23015G22KT 10SM CLR M10/M14 A2990 RMK AO2
KS25 161555Z AUTO 23014G22KT 10SM CLR M10/M15 A2991 RMK AO2
KS25 161535Z AUTO 24014G20KT 10SM CLR M11/M16 A2993 RMK AO2
KS25 161515Z AUTO 24014G21KT 10SM CLR M11/M16 A2993 RMK AO2
KS25 161455Z AUTO 24017KT 10SM CLR M12/M16 A2993 RMK AO2
KS25 161435Z AUTO 24014G20KT 10SM CLR M12/M16 A2994 RMK AO2
KS25 161415Z AUTO 22013KT 10SM CLR M13/M17 A2995 RMK AO2
KS25 161355Z AUTO 23011KT 10SM CLR M14/M18 A2996 RMK AO2
KS25 161335Z AUTO 22011G16KT 10SM CLR M14/M18 A2998 RMK AO2
KS25 161315Z AUTO 21011KT 10SM CLR M15/M18 A2999 RMK AO2
KS25 161255Z AUTO 22009KT 10SM CLR M16/M19 A3000 RMK AO2
KS25 161235Z AUTO 22008KT 10SM CLR M17/M20 A3002 RMK AO2
KS25 161215Z AUTO 24009KT 10SM CLR M16/M20 A3003 RMK AO2
KS25 161155Z AUTO 23008KT 10SM CLR M17/M20 A3004 RMK AO2
KS25 161135Z AUTO 22009KT 10SM CLR M16/M20 A3005 RMK AO2
KS25 161115Z AUTO 23009KT 10SM CLR M16/M19 A3007 RMK AO2
KS25 161055Z AUTO 23009KT 10SM CLR M16/M19 A3008 RMK AO2
KS25 161035Z AUTO 23007KT 10SM CLR M17/M20 A3009 RMK AO2
KS25 161015Z AUTO 00000KT 10SM CLR M19/M21 A3011 RMK AO2
KS25 160955Z AUTO 24006KT 10SM CLR M18/M21 A3013 RMK AO2
KS25 160935Z AUTO 00000KT 10SM CLR M19/M22 A3014 RMK AO2
KS25 160915Z AUTO 00000KT 10SM CLR M18/M21 A3015 RMK AO2
KS25 160855Z AUTO 23005KT 10SM CLR M17/M21 A3016 RMK AO2
KS25 160835Z AUTO 23005G10KT 10SM CLR M17/M21 A3017 RMK AO2
KS25 160815Z AUTO 23006KT 10SM CLR M17/M21 A3019 RMK AO2
KS25 160755Z AUTO 22012KT 10SM CLR M17/M21 A3020 RMK AO2